createdAt,value
2018-09-23T00:00:58.480Z,90.07
2018-09-23T00:03:27.075Z,89.60
2018-09-23T00:05:55.555Z,90.69
2018-09-23T00:08:24.100Z,90.48
2018-09-23T00:10:52.587Z,90.08
2018-09-23T00:13:22.008Z,91.04
2018-09-23T00:15:50.504Z,91.13
2018-09-23T00:18:19.212Z,90.82
2018-09-23T00:20:47.719Z,92.96
2018-09-23T00:23:16.627Z,90.00
2018-09-23T00:25:45.175Z,91.06
2018-09-23T00:28:13.773Z,89.39
2018-09-23T00:30:42.216Z,89.69
2018-09-23T00:33:10.775Z,89.70
2018-09-23T00:35:39.444Z,89.48
2018-09-23T00:38:08.017Z,89.71
2018-09-23T00:40:36.531Z,90.28
2018-09-23T00:43:05.907Z,90.29
2018-09-23T00:45:34.489Z,89.35
2018-09-23T00:48:02.959Z,91.03
2018-09-23T00:50:31.374Z,89.88
2018-09-23T00:53:00.054Z,89.48
2018-09-23T00:55:28.519Z,89.59
2018-09-23T00:57:57.071Z,90.58
2018-09-23T01:00:25.672Z,89.20
2018-09-23T01:02:54.133Z,89.27
2018-09-23T01:05:22.557Z,89.84
2018-09-23T01:07:51.059Z,89.26
2018-09-23T01:10:19.602Z,87.87
2018-09-23T01:12:48.260Z,90.29
2018-09-23T01:15:16.829Z,90.75
2018-09-23T01:17:45.297Z,89.82
2018-09-23T01:20:13.808Z,91.14
2018-09-23T01:22:42.348Z,91.04
2018-09-23T01:25:10.884Z,90.28
2018-09-23T01:27:39.509Z,90.94
2018-09-23T01:30:08.001Z,91.79
2018-09-23T01:32:37.388Z,90.93
2018-09-23T01:35:05.856Z,90.35
2018-09-23T01:37:34.339Z,90.75
2018-09-23T01:40:02.860Z,90.69
2018-09-23T01:42:31.415Z,89.97
2018-09-23T01:44:59.963Z,90.86
2018-09-23T01:47:28.523Z,90.73
2018-09-23T01:49:57.059Z,91.01
2018-09-23T01:52:26.230Z,91.62
2018-09-23T01:54:54.727Z,91.10
2018-09-23T01:57:23.201Z,91.30
2018-09-23T01:59:52.474Z,91.01
2018-09-23T02:02:21.659Z,91.96
2018-09-23T02:04:51.064Z,91.65
2018-09-23T02:07:19.545Z,92.66
2018-09-23T02:09:48.123Z,92.14
2018-09-23T02:12:16.573Z,92.39
2018-09-23T02:14:45.090Z,91.94
2018-09-23T02:17:13.544Z,92.18
2018-09-23T02:19:42.068Z,93.95
2018-09-23T02:22:11.544Z,93.42
2018-09-23T02:24:40.063Z,93.73
2018-09-23T02:27:09.518Z,92.97
2018-09-23T02:29:38.035Z,92.95
2018-09-23T02:32:07.303Z,92.48
2018-09-23T02:34:36.216Z,93.53
2018-09-23T02:37:04.824Z,92.25
2018-09-23T02:39:34.004Z,92.59
2018-09-23T02:42:03.332Z,92.92
2018-09-23T02:44:33.447Z,92.79
2018-09-23T02:47:02.959Z,92.65
2018-09-23T02:49:31.532Z,92.66
2018-09-23T02:52:00.508Z,93.40
2018-09-23T02:54:29.078Z,92.37
2018-09-23T02:56:57.890Z,92.89
2018-09-23T02:59:26.364Z,91.93
2018-09-23T03:01:55.203Z,93.07
2018-09-23T03:04:24.280Z,92.66
2018-09-23T03:06:53.206Z,94.12
2018-09-23T03:09:22.191Z,93.20
2018-09-23T03:11:50.829Z,93.21
2018-09-23T03:14:20.036Z,93.80
2018-09-23T03:16:48.540Z,93.72
2018-09-23T03:19:17.986Z,93.52
2018-09-23T03:21:46.567Z,92.71
2018-09-23T03:24:15.349Z,91.59
2018-09-23T03:26:43.813Z,91.91
2018-09-23T03:29:12.370Z,92.37
2018-09-23T03:31:41.418Z,91.90
2018-09-23T03:34:09.975Z,92.17
2018-09-23T03:36:38.556Z,92.71
2018-09-23T03:39:07.632Z,92.26
2018-09-23T03:41:36.980Z,91.54
2018-09-23T03:44:06.118Z,92.50
2018-09-23T03:46:34.563Z,92.34
2018-09-23T03:49:03.058Z,93.10
2018-09-23T03:51:31.632Z,93.52
2018-09-23T03:54:00.708Z,94.03
2018-09-23T03:56:29.781Z,94.04
2018-09-23T03:58:58.564Z,94.14
2018-09-23T04:01:27.137Z,93.91
2018-09-23T04:03:55.628Z,93.89
2018-09-23T04:06:24.772Z,94.23
2018-09-23T04:08:53.220Z,93.35
2018-09-23T04:11:21.748Z,93.32
2018-09-23T04:13:50.308Z,93.27
2018-09-23T04:16:18.939Z,94.23
2018-09-23T04:18:48.396Z,93.24
2018-09-23T04:21:16.880Z,93.81
2018-09-23T04:23:46.142Z,93.73
2018-09-23T04:26:14.705Z,92.75
2018-09-23T04:28:43.219Z,93.12
2018-09-23T04:31:11.673Z,93.14
2018-09-23T04:33:40.143Z,92.71
2018-09-23T04:36:08.632Z,93.39
2018-09-23T04:38:37.219Z,93.54
2018-09-23T04:41:06.284Z,93.59
2018-09-23T04:43:34.741Z,94.04
2018-09-23T04:46:06.371Z,93.45
2018-09-23T04:48:34.820Z,93.85
2018-09-23T04:51:03.276Z,94.69
2018-09-23T04:53:31.888Z,93.66
2018-09-23T04:56:00.360Z,94.50
2018-09-23T04:58:28.798Z,93.70
2018-09-23T05:00:57.235Z,94.67
2018-09-23T05:03:25.709Z,94.19
2018-09-23T05:05:54.189Z,94.92
2018-09-23T05:08:22.630Z,94.78
2018-09-23T05:10:51.841Z,94.89
2018-09-23T05:13:20.444Z,94.61
2018-09-23T05:15:49.412Z,94.78
2018-09-23T05:18:17.910Z,95.01
2018-09-23T05:20:46.372Z,95.39
2018-09-23T05:23:15.862Z,95.27
2018-09-23T05:25:44.776Z,94.82
2018-09-23T05:28:13.317Z,95.22
2018-09-23T05:30:41.846Z,94.44
2018-09-23T05:33:11.255Z,94.83
2018-09-23T05:35:39.736Z,95.57
2018-09-23T05:38:08.300Z,95.13
2018-09-23T05:40:36.825Z,95.64
2018-09-23T05:43:05.300Z,96.04
2018-09-23T05:45:33.801Z,95.67
2018-09-23T05:48:02.262Z,94.93
2018-09-23T05:50:30.736Z,95.62
2018-09-23T05:52:59.400Z,95.23
2018-09-23T05:55:27.883Z,95.96
2018-09-23T05:57:56.356Z,95.10
2018-09-23T06:00:24.912Z,95.61
2018-09-23T06:02:53.477Z,95.68
2018-09-23T06:05:22.012Z,94.81
2018-09-23T06:07:50.537Z,95.25
2018-09-23T06:10:18.989Z,94.95
2018-09-23T06:12:47.438Z,94.71
2018-09-23T06:15:15.884Z,94.83
2018-09-23T06:17:44.416Z,94.46
2018-09-23T06:20:13.264Z,95.33
2018-09-23T06:22:41.753Z,95.46
2018-09-23T06:25:10.375Z,95.37
2018-09-23T06:27:38.880Z,95.02
2018-09-23T06:30:07.639Z,95.57
2018-09-23T06:32:36.351Z,94.60
2018-09-23T06:35:04.834Z,95.23
2018-09-23T06:37:33.288Z,94.82
2018-09-23T06:40:01.840Z,95.63
2018-09-23T06:42:30.339Z,95.73
2018-09-23T06:44:59.400Z,96.67
2018-09-23T06:47:27.867Z,96.03
2018-09-23T06:49:56.431Z,96.41
2018-09-23T06:52:24.888Z,95.95
2018-09-23T06:54:53.482Z,95.99
2018-09-23T06:57:21.935Z,96.30
2018-09-23T06:59:51.869Z,96.16
2018-09-23T07:02:20.704Z,96.63
2018-09-23T07:04:49.224Z,96.14
2018-09-23T07:07:19.748Z,96.95
2018-09-23T07:09:48.292Z,96.99
2018-09-23T07:12:16.847Z,96.76
2018-09-23T07:14:45.805Z,96.79
2018-09-23T07:17:14.353Z,96.76
2018-09-23T07:19:42.855Z,94.81
2018-09-23T07:22:11.409Z,95.17
2018-09-23T07:24:40.001Z,95.59
2018-09-23T07:27:08.780Z,96.48
2018-09-23T07:29:37.428Z,96.59
2018-09-23T07:32:05.971Z,95.91
2018-09-23T07:34:34.471Z,96.21
2018-09-23T07:37:03.068Z,96.82
2018-09-23T07:39:31.525Z,96.31
2018-09-23T07:41:59.947Z,96.45
2018-09-23T07:44:28.423Z,96.05
2018-09-23T07:46:56.956Z,96.25
2018-09-23T07:49:26.012Z,96.45
2018-09-23T07:51:55.768Z,95.94
2018-09-23T07:54:25.466Z,96.13
2018-09-23T07:56:54.145Z,96.58
2018-09-23T07:59:22.964Z,96.32
2018-09-23T08:01:51.594Z,96.52
2018-09-23T08:04:20.329Z,96.19
2018-09-23T08:06:48.869Z,96.68
2018-09-23T08:09:17.555Z,95.96
2018-09-23T08:11:46.222Z,95.91
2018-09-23T08:14:15.277Z,95.62
2018-09-23T08:16:44.172Z,95.80
2018-09-23T08:19:13.089Z,96.09
2018-09-23T08:21:41.752Z,95.83
2018-09-23T08:24:10.404Z,96.22
2018-09-23T08:26:39.951Z,97.17
2018-09-23T08:29:09.030Z,97.02
2018-09-23T08:31:38.718Z,96.20
2018-09-23T08:34:07.548Z,96.10
2018-09-23T08:36:36.284Z,96.08
2018-09-23T08:39:06.019Z,95.97
2018-09-23T08:41:34.957Z,96.57
2018-09-23T08:44:03.636Z,95.34
2018-09-23T08:46:32.379Z,96.11
2018-09-23T08:49:01.038Z,95.49
2018-09-23T08:51:29.593Z,95.91
2018-09-23T08:53:58.268Z,96.16
2018-09-23T08:56:27.048Z,96.42
2018-09-23T08:58:55.737Z,96.50
2018-09-23T09:01:24.762Z,95.24
2018-09-23T09:03:53.285Z,95.96
2018-09-23T09:06:21.881Z,95.36
2018-09-23T09:08:51.509Z,95.68
2018-09-23T09:11:20.123Z,94.99
2018-09-23T09:13:48.966Z,95.44
2018-09-23T09:16:17.660Z,96.40
2018-09-23T09:18:46.543Z,95.32
2018-09-23T09:21:15.085Z,94.61
2018-09-23T09:23:43.803Z,94.67
2018-09-23T09:28:46.629Z,95.20
2018-09-23T09:31:16.274Z,95.13
2018-09-23T09:33:44.837Z,95.11
2018-09-23T09:36:13.589Z,95.41
2018-09-23T09:38:42.383Z,95.69
2018-09-23T09:41:12.939Z,95.28
2018-09-23T09:43:43.212Z,95.55
2018-09-23T09:46:11.858Z,95.62
2018-09-23T09:48:40.524Z,95.68
2018-09-23T09:51:09.147Z,96.06
2018-09-23T09:53:38.376Z,96.26
2018-09-23T09:56:07.168Z,95.87
2018-09-23T09:58:35.955Z,95.49
2018-09-23T10:01:04.427Z,96.05
2018-09-23T10:03:33.613Z,94.79
2018-09-23T10:06:03.520Z,95.93
2018-09-23T10:08:31.949Z,94.85
2018-09-23T10:11:00.421Z,94.29
2018-09-23T10:13:28.893Z,94.91
2018-09-23T10:15:58.556Z,94.45
2018-09-23T10:18:27.364Z,95.60
2018-09-23T10:20:55.839Z,94.62
2018-09-23T10:23:24.443Z,95.06
2018-09-23T10:25:52.825Z,94.09
2018-09-23T10:28:21.353Z,93.72
2018-09-23T10:30:49.825Z,93.74
2018-09-23T10:33:18.790Z,95.41
2018-09-23T10:35:47.447Z,94.43
2018-09-23T10:38:16.234Z,94.70
2018-09-23T10:40:45.571Z,94.34
2018-09-23T10:43:15.526Z,94.20
2018-09-23T10:45:44.140Z,94.27
2018-09-23T10:48:12.729Z,94.45
2018-09-23T10:50:41.397Z,93.39
2018-09-23T10:53:09.947Z,93.61
2018-09-23T10:55:38.587Z,92.09
2018-09-23T10:58:07.145Z,93.71
2018-09-23T11:00:35.885Z,92.84
2018-09-23T11:03:04.622Z,92.69
2018-09-23T11:05:33.290Z,91.97
2018-09-23T11:08:01.857Z,92.88
2018-09-23T11:10:30.345Z,93.10
2018-09-23T11:12:58.863Z,93.15
2018-09-23T11:15:27.520Z,92.65
2018-09-23T11:17:56.277Z,93.70
2018-09-23T11:20:24.698Z,93.97
2018-09-23T11:22:53.170Z,93.69
2018-09-23T11:25:21.667Z,92.70
2018-09-23T11:27:50.142Z,92.51
2018-09-23T11:30:18.731Z,93.80
2018-09-23T11:32:48.024Z,95.07
2018-09-23T11:35:16.823Z,94.63
2018-09-23T11:37:45.423Z,94.07
2018-09-23T11:40:13.995Z,93.97
2018-09-23T11:42:42.874Z,93.91
2018-09-23T11:45:11.446Z,93.48
2018-09-23T11:47:39.856Z,92.37
2018-09-23T11:50:09.247Z,93.71
2018-09-23T11:52:38.304Z,93.97
2018-09-23T11:55:07.019Z,93.53
2018-09-23T11:57:35.629Z,94.03
2018-09-23T12:00:04.512Z,94.37
2018-09-23T12:02:33.790Z,93.28
2018-09-23T12:05:02.259Z,94.68
2018-09-23T12:07:30.964Z,93.82
2018-09-23T12:09:59.576Z,93.87
2018-09-23T12:12:28.761Z,94.34
2018-09-23T12:14:57.293Z,95.06
2018-09-23T12:17:26.049Z,95.15
2018-09-23T12:19:54.572Z,95.10
2018-09-23T12:22:23.027Z,94.46
2018-09-23T12:24:51.491Z,94.93
2018-09-23T12:27:20.004Z,94.46
2018-09-23T12:29:48.468Z,95.22
2018-09-23T12:32:17.172Z,94.80
2018-09-23T12:34:45.667Z,94.24
2018-09-23T12:37:14.169Z,93.93
2018-09-23T12:39:42.721Z,93.41
2018-09-23T12:42:11.252Z,93.86
2018-09-23T12:44:39.729Z,93.50
2018-09-23T12:47:08.173Z,94.92
2018-09-23T12:49:37.766Z,94.48
2018-09-23T12:52:06.415Z,95.05
2018-09-23T12:54:34.911Z,95.03
2018-09-23T12:57:03.514Z,95.22
2018-09-23T12:59:32.056Z,94.55
2018-09-23T13:02:00.483Z,94.45
2018-09-23T13:04:28.931Z,94.84
2018-09-23T13:06:57.466Z,94.24
2018-09-23T13:09:25.937Z,94.38
2018-09-23T13:11:54.407Z,94.97
2018-09-23T13:14:22.892Z,95.85
2018-09-23T13:16:51.344Z,96.04
2018-09-23T13:19:20.102Z,95.56
2018-09-23T13:21:48.564Z,95.24
2018-09-23T13:24:17.021Z,95.96
2018-09-23T13:26:45.503Z,95.99
2018-09-23T13:29:13.963Z,96.22
2018-09-23T13:31:42.395Z,96.09
2018-09-23T13:34:10.893Z,95.01
2018-09-23T13:36:39.324Z,95.32
2018-09-23T13:39:08.913Z,95.89
2018-09-23T13:41:37.399Z,95.13
2018-09-23T13:44:05.880Z,95.50
2018-09-23T13:46:34.379Z,95.44
2018-09-23T13:49:02.825Z,94.90
2018-09-23T13:51:31.336Z,94.36
2018-09-23T13:53:59.764Z,93.64
2018-09-23T13:56:28.174Z,94.57
2018-09-23T13:58:56.920Z,95.09
2018-09-23T14:01:25.403Z,95.05
2018-09-23T14:03:53.831Z,94.93
2018-09-23T14:06:22.239Z,94.08
2018-09-23T14:08:50.931Z,95.02
2018-09-23T14:11:19.407Z,94.40
2018-09-23T14:13:47.892Z,94.97
2018-09-23T14:16:16.375Z,94.93
2018-09-23T14:18:44.821Z,94.72
2018-09-23T14:21:13.649Z,96.51
2018-09-23T14:23:42.073Z,96.89
2018-09-23T14:26:10.524Z,96.46
2018-09-23T14:28:39.839Z,97.18
2018-09-23T14:31:08.319Z,98.12
2018-09-23T14:33:37.644Z,99.49
2018-09-23T14:36:06.090Z,99.86
2018-09-23T14:38:34.543Z,100.00
2018-09-23T14:41:02.980Z,100.00
2018-09-23T14:43:31.559Z,100.00
2018-09-23T14:45:59.997Z,100.00
2018-09-23T14:48:29.202Z,100.00
2018-09-23T14:50:57.720Z,100.00
2018-09-23T14:53:26.298Z,100.00
2018-09-23T14:55:54.746Z,100.00
2018-09-23T14:58:23.264Z,100.00
2018-09-23T15:00:52.076Z,100.00
2018-09-23T15:03:20.872Z,97.04
2018-09-23T15:05:49.523Z,95.24
2018-09-23T15:08:18.083Z,95.70
2018-09-23T15:10:46.528Z,95.21
2018-09-23T15:13:14.971Z,95.33
2018-09-23T15:15:43.470Z,95.64
2018-09-23T15:18:13.763Z,94.95
2018-09-23T15:20:42.404Z,94.89
2018-09-23T15:23:10.870Z,94.96
2018-09-23T15:25:39.919Z,94.90
2018-09-23T15:28:08.968Z,92.65
2018-09-23T15:30:37.497Z,90.60
2018-09-23T15:33:05.916Z,89.39
2018-09-23T15:35:34.311Z,90.70
2018-09-23T15:38:02.745Z,91.78
2018-09-23T15:40:31.194Z,89.47
2018-09-23T15:42:59.617Z,90.23
2018-09-23T15:45:28.950Z,88.52
2018-09-23T15:47:57.446Z,88.97
2018-09-23T15:50:27.952Z,89.24
2018-09-23T15:52:57.065Z,90.49
2018-09-23T15:55:26.250Z,90.14
2018-09-23T15:57:55.202Z,89.80
2018-09-23T16:00:24.341Z,90.49
2018-09-23T16:02:53.788Z,89.89
2018-09-23T16:05:23.101Z,90.92
2018-09-23T16:07:52.341Z,91.43
2018-09-23T16:10:21.116Z,88.87
2018-09-23T16:12:50.040Z,89.88
2018-09-23T16:15:19.191Z,89.73
2018-09-23T16:17:49.672Z,89.58
2018-09-23T16:20:19.270Z,89.00
2018-09-23T16:22:47.931Z,88.36
2018-09-23T16:25:16.879Z,89.39
2018-09-23T16:27:45.549Z,89.77
2018-09-23T16:30:14.280Z,91.15
2018-09-23T16:32:43.056Z,90.75
2018-09-23T16:35:11.728Z,88.08
2018-09-23T16:37:40.482Z,89.79
2018-09-23T16:40:09.345Z,90.12
2018-09-23T16:42:38.319Z,87.88
2018-09-23T16:45:08.434Z,86.78
2018-09-23T16:47:38.268Z,86.76
2018-09-23T16:50:07.126Z,85.97
2018-09-23T16:52:36.634Z,87.32
2018-09-23T16:55:05.320Z,88.08
2018-09-23T16:57:35.221Z,88.34
2018-09-23T17:00:03.877Z,88.12
2018-09-23T17:02:33.310Z,88.77
2018-09-23T17:05:02.505Z,89.32
2018-09-23T17:07:33.071Z,87.08
2018-09-23T17:10:01.678Z,88.11
2018-09-23T17:12:30.323Z,88.49
2018-09-23T17:15:00.138Z,86.24
2018-09-23T17:17:29.088Z,86.94
2018-09-23T17:19:57.590Z,86.78
2018-09-23T17:22:26.061Z,86.45
2018-09-23T17:24:54.592Z,87.25
2018-09-23T17:27:23.110Z,85.96
2018-09-23T17:29:51.634Z,87.36
2018-09-23T17:32:20.624Z,86.92
2018-09-23T17:34:51.094Z,86.87
2018-09-23T17:37:19.561Z,86.41
2018-09-23T17:39:48.339Z,87.76
2018-09-23T17:42:16.858Z,86.26
2018-09-23T17:44:47.004Z,85.67
2018-09-23T17:47:15.511Z,84.44
2018-09-23T17:49:44.009Z,84.31
2018-09-23T17:52:12.443Z,84.42
2018-09-23T17:54:40.949Z,85.39
2018-09-23T17:57:09.460Z,84.40
2018-09-23T17:59:37.937Z,86.25
2018-09-23T18:02:06.588Z,85.39
2018-09-23T18:04:34.963Z,84.52
2018-09-23T18:07:03.474Z,84.81
2018-09-23T18:09:31.941Z,83.92
2018-09-23T18:12:00.391Z,83.90
2018-09-23T18:14:28.875Z,84.07
2018-09-23T18:16:57.763Z,84.38
2018-09-23T18:19:27.024Z,83.08
2018-09-23T18:21:55.588Z,84.00
2018-09-23T18:24:24.221Z,84.50
2018-09-23T18:26:52.685Z,85.07
2018-09-23T18:29:21.196Z,83.32
2018-09-23T18:31:49.720Z,84.18
2018-09-23T18:34:18.990Z,83.51
2018-09-23T18:36:47.515Z,83.63
2018-09-23T18:39:16.090Z,83.33
2018-09-23T18:41:44.576Z,82.50
2018-09-23T18:44:13.084Z,83.02
2018-09-23T18:46:41.656Z,83.46
2018-09-23T18:49:10.173Z,84.83
2018-09-23T18:51:38.934Z,83.90
2018-09-23T18:54:13.087Z,84.36
2018-09-23T18:56:41.587Z,84.33
2018-09-23T18:59:10.140Z,83.68
2018-09-23T19:01:38.677Z,82.54
2018-09-23T19:04:07.178Z,82.38
2018-09-23T19:06:35.708Z,81.80
2018-09-23T19:09:05.131Z,81.61
2018-09-23T19:11:33.696Z,82.21
2018-09-23T19:14:02.168Z,81.24
2018-09-23T19:16:33.031Z,80.18
2018-09-23T19:19:01.483Z,81.20
2018-09-23T19:21:30.656Z,81.41
2018-09-23T19:23:59.518Z,80.92
2018-09-23T19:26:28.478Z,80.58
2018-09-23T19:28:57.112Z,79.91
2018-09-23T19:31:25.640Z,79.67
2018-09-23T19:33:54.089Z,78.46
2018-09-23T19:36:23.376Z,76.69
2018-09-23T19:38:52.682Z,76.00
2018-09-23T19:41:21.187Z,75.34
2018-09-23T19:43:49.600Z,78.37
2018-09-23T19:46:18.201Z,78.68
2018-09-23T19:48:46.765Z,78.36
2018-09-23T19:51:15.238Z,76.68
2018-09-23T19:53:43.779Z,78.77
2018-09-23T19:56:12.236Z,78.21
2018-09-23T19:58:40.676Z,77.02
2018-09-23T20:01:09.156Z,78.36
2018-09-23T20:03:38.180Z,76.27
2018-09-23T20:06:06.955Z,78.10
2018-09-23T20:08:35.394Z,77.49
2018-09-23T20:11:03.804Z,77.09
2018-09-23T20:13:32.258Z,77.30
2018-09-23T20:16:00.772Z,77.85
2018-09-23T20:18:29.244Z,76.61
2018-09-23T20:20:57.836Z,77.15
2018-09-23T20:23:26.316Z,75.03
2018-09-23T20:25:54.767Z,75.79
2018-09-23T20:28:23.263Z,75.85
2018-09-23T20:30:51.689Z,75.09
2018-09-23T20:33:20.140Z,76.63
2018-09-23T20:35:48.736Z,75.99
2018-09-23T20:38:17.190Z,75.65
2018-09-23T20:40:45.825Z,75.69
2018-09-23T20:43:14.407Z,74.97
2018-09-23T20:45:42.910Z,74.68
2018-09-23T20:48:11.376Z,75.00
2018-09-23T20:50:39.998Z,75.97
2018-09-23T20:53:08.475Z,77.34
2018-09-23T20:55:36.931Z,75.06
2018-09-23T20:58:05.924Z,76.09
2018-09-23T21:00:34.418Z,76.88
2018-09-23T21:03:02.970Z,77.25
2018-09-23T21:05:31.433Z,77.47
2018-09-23T21:07:59.932Z,77.03
2018-09-23T21:10:28.480Z,76.03
2018-09-23T21:12:56.939Z,76.00
2018-09-23T21:15:25.388Z,76.16
2018-09-23T21:17:53.916Z,76.64
2018-09-23T21:20:23.824Z,76.15
2018-09-23T21:22:52.236Z,75.98
2018-09-23T21:25:20.690Z,76.98
2018-09-23T21:27:49.243Z,76.65
2018-09-23T21:30:17.776Z,77.23
2018-09-23T21:32:46.279Z,78.71
2018-09-23T21:35:14.691Z,78.41
2018-09-23T21:37:43.234Z,77.00
2018-09-23T21:40:12.463Z,76.60
2018-09-23T21:42:40.913Z,77.77
2018-09-23T21:45:09.395Z,77.75
2018-09-23T21:47:37.976Z,78.20
2018-09-23T21:50:06.490Z,76.89
2018-09-23T21:52:35.319Z,76.94
2018-09-23T21:55:03.811Z,78.05
2018-09-23T21:57:33.265Z,79.56
2018-09-23T22:00:01.872Z,78.70
2018-09-23T22:02:30.443Z,78.87
2018-09-23T22:04:58.912Z,79.90
2018-09-23T22:07:27.528Z,81.07
2018-09-23T22:09:56.660Z,81.88
2018-09-23T22:12:25.249Z,82.59
2018-09-23T22:14:54.429Z,80.56
2018-09-23T22:17:23.053Z,82.76
2018-09-23T22:19:51.500Z,83.96
2018-09-23T22:22:20.915Z,81.04
2018-09-23T22:24:49.420Z,84.51
2018-09-23T22:27:18.026Z,82.39
2018-09-23T22:29:46.487Z,80.29
2018-09-23T22:32:15.009Z,79.59
2018-09-23T22:34:44.490Z,81.67
2018-09-23T22:37:13.072Z,83.53
2018-09-23T22:39:41.548Z,84.45
2018-09-23T22:42:09.996Z,86.31
2018-09-23T22:44:39.002Z,86.40
2018-09-23T22:47:07.504Z,86.40
2018-09-23T22:49:36.009Z,85.74
2018-09-23T22:52:04.476Z,85.59
2018-09-23T22:54:32.880Z,84.30
2018-09-23T22:57:01.373Z,84.88
2018-09-23T22:59:29.931Z,85.36
2018-09-23T23:01:58.476Z,85.26
2018-09-23T23:04:28.028Z,83.88
2018-09-23T23:06:56.512Z,84.21
2018-09-23T23:09:24.997Z,84.28
2018-09-23T23:11:53.480Z,83.92
2018-09-23T23:14:21.914Z,84.01
2018-09-23T23:16:50.396Z,85.99
2018-09-23T23:19:18.883Z,86.65
2018-09-23T23:21:47.377Z,86.80
2018-09-23T23:24:15.884Z,85.75
2018-09-23T23:26:44.377Z,86.26
2018-09-23T23:29:16.155Z,87.76
2018-09-23T23:31:44.587Z,89.59
2018-09-23T23:34:13.298Z,89.41
2018-09-23T23:36:41.835Z,88.62
2018-09-23T23:39:11.264Z,88.71
2018-09-23T23:41:40.094Z,88.67
2018-09-23T23:44:08.753Z,89.34
2018-09-23T23:46:37.807Z,90.00
2018-09-23T23:49:06.431Z,88.92
2018-09-23T23:51:34.872Z,90.51
2018-09-23T23:54:03.341Z,90.64
2018-09-23T23:56:32.339Z,89.24
2018-09-23T23:59:00.951Z,89.17
